sensor_id;sensor_type;location;lat;lon;timestamp;P1;durP1;ratioP1;P2;durP2;ratioP2
70997;SDS011;58663;52.040;4.634;2022-12-07T00:01:36;9.00;;;1.58;;
70997;SDS011;58663;52.040;4.634;2022-12-07T00:04:03;7.47;;;1.30;;
70997;SDS011;58663;52.040;4.634;2022-12-07T00:06:34;9.57;;;1.15;;
70997;SDS011;58663;52.040;4.634;2022-12-07T00:09:02;6.60;;;1.10;;
70997;SDS011;58663;52.040;4.634;2022-12-07T00:11:28;6.07;;;1.00;;
70997;SDS011;58663;52.040;4.634;2022-12-07T00:13:54;7.25;;;1.23;;
70997;SDS011;58663;52.040;4.634;2022-12-07T00:16:22;19.02;;;2.05;;
70997;SDS011;58663;52.040;4.634;2022-12-07T00:18:49;13.13;;;2.10;;
70997;SDS011;58663;52.040;4.634;2022-12-07T00:21:16;9.10;;;1.85;;
70997;SDS011;58663;52.040;4.634;2022-12-07T00:23:44;6.65;;;1.80;;
70997;SDS011;58663;52.040;4.634;2022-12-07T00:26:20;8.18;;;2.22;;
70997;SDS011;58663;52.040;4.634;2022-12-07T00:29:05;5.57;;;2.13;;
70997;SDS011;58663;52.040;4.634;2022-12-07T00:31:34;10.18;;;2.30;;
70997;SDS011;58663;52.040;4.634;2022-12-07T00:34:04;8.10;;;2.03;;
70997;SDS011;58663;52.040;4.634;2022-12-07T00:36:30;4.90;;;1.85;;
70997;SDS011;58663;52.040;4.634;2022-12-07T00:38:57;7.18;;;1.70;;
70997;SDS011;58663;52.040;4.634;2022-12-07T00:41:23;9.13;;;2.30;;
70997;SDS011;58663;52.040;4.634;2022-12-07T00:43:50;4.10;;;1.30;;
70997;SDS011;58663;52.040;4.634;2022-12-07T00:46:15;4.25;;;1.42;;
70997;SDS011;58663;52.040;4.634;2022-12-07T00:48:42;13.13;;;1.90;;
70997;SDS011;58663;52.040;4.634;2022-12-07T00:51:07;12.40;;;1.55;;
70997;SDS011;58663;52.040;4.634;2022-12-07T00:53:34;6.95;;;1.90;;
70997;SDS011;58663;52.040;4.634;2022-12-07T00:56:07;9.70;;;1.42;;
70997;SDS011;58663;52.040;4.634;2022-12-07T00:58:33;14.48;;;1.90;;
70997;SDS011;58663;52.040;4.634;2022-12-07T01:01:00;8.52;;;1.60;;
70997;SDS011;58663;52.040;4.634;2022-12-07T01:03:27;14.38;;;1.10;;
70997;SDS011;58663;52.040;4.634;2022-12-07T01:05:53;6.30;;;1.13;;
70997;SDS011;58663;52.040;4.634;2022-12-07T01:08:20;10.57;;;1.33;;
70997;SDS011;58663;52.040;4.634;2022-12-07T01:10:45;1.77;;;0.65;;
70997;SDS011;58663;52.040;4.634;2022-12-07T01:13:11;4.88;;;0.90;;
70997;SDS011;58663;52.040;4.634;2022-12-07T01:15:40;10.93;;;0.98;;
70997;SDS011;58663;52.040;4.634;2022-12-07T01:18:06;13.13;;;0.90;;
70997;SDS011;58663;52.040;4.634;2022-12-07T01:20:32;3.08;;;0.63;;
70997;SDS011;58663;52.040;4.634;2022-12-07T01:22:57;5.43;;;0.60;;
70997;SDS011;58663;52.040;4.634;2022-12-07T01:25:23;6.55;;;0.73;;
70997;SDS011;58663;52.040;4.634;2022-12-07T01:27:48;4.30;;;1.02;;
70997;SDS011;58663;52.040;4.634;2022-12-07T01:30:13;4.20;;;0.68;;
70997;SDS011;58663;52.040;4.634;2022-12-07T01:32:39;15.40;;;1.35;;
70997;SDS011;58663;52.040;4.634;2022-12-07T01:35:04;3.03;;;0.70;;
70997;SDS011;58663;52.040;4.634;2022-12-07T01:37:33;7.50;;;0.90;;
70997;SDS011;58663;52.040;4.634;2022-12-07T01:40:00;8.50;;;0.93;;
70997;SDS011;58663;52.040;4.634;2022-12-07T01:42:26;6.20;;;0.90;;
70997;SDS011;58663;52.040;4.634;2022-12-07T01:47:55;6.32;;;0.60;;
70997;SDS011;58663;52.040;4.634;2022-12-07T01:50:21;5.25;;;0.65;;
70997;SDS011;58663;52.040;4.634;2022-12-07T01:52:50;2.90;;;0.73;;
70997;SDS011;58663;52.040;4.634;2022-12-07T01:55:16;2.15;;;0.70;;
70997;SDS011;58663;52.040;4.634;2022-12-07T01:57:47;1.88;;;0.70;;
70997;SDS011;58663;52.040;4.634;2022-12-07T02:00:14;3.50;;;1.20;;
70997;SDS011;58663;52.040;4.634;2022-12-07T02:02:51;0.80;;;0.35;;
70997;SDS011;58663;52.040;4.634;2022-12-07T02:05:21;7.68;;;0.90;;
70997;SDS011;58663;52.040;4.634;2022-12-07T02:07:47;7.55;;;0.98;;
70997;SDS011;58663;52.040;4.634;2022-12-07T02:13:15;7.65;;;0.95;;
70997;SDS011;58663;52.040;4.634;2022-12-07T02:18:16;9.77;;;1.27;;
70997;SDS011;58663;52.040;4.634;2022-12-07T02:21:28;12.50;;;1.10;;
70997;SDS011;58663;52.040;4.634;2022-12-07T02:31:55;10.38;;;0.80;;
70997;SDS011;58663;52.040;4.634;2022-12-07T02:34:30;9.50;;;0.90;;
70997;SDS011;58663;52.040;4.634;2022-12-07T02:37:03;4.65;;;0.63;;
70997;SDS011;58663;52.040;4.634;2022-12-07T02:39:41;4.43;;;0.90;;
70997;SDS011;58663;52.040;4.634;2022-12-07T02:42:21;4.70;;;1.08;;
70997;SDS011;58663;52.040;4.634;2022-12-07T02:44:50;3.75;;;0.63;;
70997;SDS011;58663;52.040;4.634;2022-12-07T02:47:16;8.15;;;0.77;;
70997;SDS011;58663;52.040;4.634;2022-12-07T02:49:42;6.65;;;1.30;;
70997;SDS011;58663;52.040;4.634;2022-12-07T02:52:09;8.05;;;1.17;;
70997;SDS011;58663;52.040;4.634;2022-12-07T02:54:34;12.07;;;1.48;;
70997;SDS011;58663;52.040;4.634;2022-12-07T02:57:20;8.45;;;0.98;;
70997;SDS011;58663;52.040;4.634;2022-12-07T03:00:05;7.97;;;1.45;;
70997;SDS011;58663;52.040;4.634;2022-12-07T03:15:49;8.70;;;0.75;;
70997;SDS011;58663;52.040;4.634;2022-12-07T03:18:16;8.07;;;1.10;;
70997;SDS011;58663;52.040;4.634;2022-12-07T03:20:44;3.22;;;0.60;;
70997;SDS011;58663;52.040;4.634;2022-12-07T03:23:11;8.00;;;1.02;;
70997;SDS011;58663;52.040;4.634;2022-12-07T03:25:43;2.17;;;0.60;;
70997;SDS011;58663;52.040;4.634;2022-12-07T03:28:11;10.80;;;0.80;;
70997;SDS011;58663;52.040;4.634;2022-12-07T03:30:47;1.08;;;0.68;;
70997;SDS011;58663;52.040;4.634;2022-12-07T03:33:20;4.97;;;0.82;;
70997;SDS011;58663;52.040;4.634;2022-12-07T03:36:34;3.72;;;0.63;;
70997;SDS011;58663;52.040;4.634;2022-12-07T03:41:27;8.13;;;0.80;;
70997;SDS011;58663;52.040;4.634;2022-12-07T03:43:55;12.38;;;1.17;;
70997;SDS011;58663;52.040;4.634;2022-12-07T03:46:31;4.10;;;0.80;;
70997;SDS011;58663;52.040;4.634;2022-12-07T03:54:19;3.97;;;0.60;;
70997;SDS011;58663;52.040;4.634;2022-12-07T03:56:49;5.15;;;0.70;;
70997;SDS011;58663;52.040;4.634;2022-12-07T03:59:16;3.85;;;0.68;;
70997;SDS011;58663;52.040;4.634;2022-12-07T04:01:43;6.47;;;0.90;;
70997;SDS011;58663;52.040;4.634;2022-12-07T04:04:09;5.95;;;0.68;;
70997;SDS011;58663;52.040;4.634;2022-12-07T04:06:34;4.90;;;0.82;;
70997;SDS011;58663;52.040;4.634;2022-12-07T04:09:00;8.25;;;0.57;;
70997;SDS011;58663;52.040;4.634;2022-12-07T04:11:25;3.78;;;1.35;;
70997;SDS011;58663;52.040;4.634;2022-12-07T04:13:50;2.83;;;0.60;;
70997;SDS011;58663;52.040;4.634;2022-12-07T04:16:34;2.17;;;0.63;;
70997;SDS011;58663;52.040;4.634;2022-12-07T04:19:00;5.10;;;0.88;;
70997;SDS011;58663;52.040;4.634;2022-12-07T04:21:25;6.15;;;0.68;;
70997;SDS011;58663;52.040;4.634;2022-12-07T04:23:51;3.03;;;0.52;;
70997;SDS011;58663;52.040;4.634;2022-12-07T04:26:16;2.28;;;0.60;;
70997;SDS011;58663;52.040;4.634;2022-12-07T04:28:41;4.32;;;0.63;;
70997;SDS011;58663;52.040;4.634;2022-12-07T04:31:07;6.45;;;1.13;;
70997;SDS011;58663;52.040;4.634;2022-12-07T04:33:32;4.93;;;1.08;;
70997;SDS011;58663;52.040;4.634;2022-12-07T04:35:58;4.65;;;0.80;;
70997;SDS011;58663;52.040;4.634;2022-12-07T04:38:23;7.90;;;0.90;;
70997;SDS011;58663;52.040;4.634;2022-12-07T04:40:48;7.82;;;1.55;;
70997;SDS011;58663;52.040;4.634;2022-12-07T04:43:14;10.15;;;0.73;;
70997;SDS011;58663;52.040;4.634;2022-12-07T04:45:39;4.53;;;0.77;;
70997;SDS011;58663;52.040;4.634;2022-12-07T04:48:05;7.32;;;0.85;;
70997;SDS011;58663;52.040;4.634;2022-12-07T04:50:30;3.05;;;0.75;;
70997;SDS011;58663;52.040;4.634;2022-12-07T04:52:56;7.72;;;0.73;;
70997;SDS011;58663;52.040;4.634;2022-12-07T04:55:21;3.92;;;0.80;;
70997;SDS011;58663;52.040;4.634;2022-12-07T04:57:46;6.22;;;0.80;;
70997;SDS011;58663;52.040;4.634;2022-12-07T05:00:12;3.40;;;1.02;;
70997;SDS011;58663;52.040;4.634;2022-12-07T05:02:37;3.65;;;0.90;;
70997;SDS011;58663;52.040;4.634;2022-12-07T05:05:03;7.22;;;1.50;;
70997;SDS011;58663;52.040;4.634;2022-12-07T05:07:28;2.42;;;0.77;;
70997;SDS011;58663;52.040;4.634;2022-12-07T05:09:54;8.82;;;1.10;;
70997;SDS011;58663;52.040;4.634;2022-12-07T05:12:19;9.30;;;0.93;;
70997;SDS011;58663;52.040;4.634;2022-12-07T05:14:44;3.42;;;0.80;;
70997;SDS011;58663;52.040;4.634;2022-12-07T05:17:10;7.68;;;1.00;;
70997;SDS011;58663;52.040;4.634;2022-12-07T05:19:36;3.78;;;0.60;;
70997;SDS011;58663;52.040;4.634;2022-12-07T05:22:01;9.10;;;1.10;;
70997;SDS011;58663;52.040;4.634;2022-12-07T05:24:27;9.00;;;1.38;;
70997;SDS011;58663;52.040;4.634;2022-12-07T05:26:52;10.40;;;0.70;;
70997;SDS011;58663;52.040;4.634;2022-12-07T05:29:18;6.82;;;0.90;;
70997;SDS011;58663;52.040;4.634;2022-12-07T05:31:43;4.53;;;1.42;;
70997;SDS011;58663;52.040;4.634;2022-12-07T05:34:09;2.42;;;0.88;;
70997;SDS011;58663;52.040;4.634;2022-12-07T05:36:35;2.60;;;0.90;;
70997;SDS011;58663;52.040;4.634;2022-12-07T05:39:00;7.00;;;0.73;;
70997;SDS011;58663;52.040;4.634;2022-12-07T05:41:26;4.57;;;0.80;;
70997;SDS011;58663;52.040;4.634;2022-12-07T05:44:30;11.63;;;0.98;;
70997;SDS011;58663;52.040;4.634;2022-12-07T05:46:55;9.88;;;1.58;;
70997;SDS011;58663;52.040;4.634;2022-12-07T05:49:21;3.20;;;1.10;;
70997;SDS011;58663;52.040;4.634;2022-12-07T05:51:46;5.30;;;0.90;;
70997;SDS011;58663;52.040;4.634;2022-12-07T05:54:11;7.10;;;0.77;;
70997;SDS011;58663;52.040;4.634;2022-12-07T05:56:37;5.57;;;1.10;;
70997;SDS011;58663;52.040;4.634;2022-12-07T05:59:02;0.98;;;0.60;;
70997;SDS011;58663;52.040;4.634;2022-12-07T06:01:46;4.45;;;1.02;;
70997;SDS011;58663;52.040;4.634;2022-12-07T06:04:12;1.35;;;0.90;;
70997;SDS011;58663;52.040;4.634;2022-12-07T06:06:37;8.77;;;1.08;;
70997;SDS011;58663;52.040;4.634;2022-12-07T06:09:03;4.70;;;0.70;;
70997;SDS011;58663;52.040;4.634;2022-12-07T06:11:28;4.63;;;0.75;;
70997;SDS011;58663;52.040;4.634;2022-12-07T06:14:12;1.90;;;0.80;;
70997;SDS011;58663;52.040;4.634;2022-12-07T06:16:38;6.82;;;1.10;;
70997;SDS011;58663;52.040;4.634;2022-12-07T06:19:03;4.50;;;0.90;;
70997;SDS011;58663;52.040;4.634;2022-12-07T06:21:28;8.27;;;1.00;;
70997;SDS011;58663;52.040;4.634;2022-12-07T06:23:54;5.10;;;0.93;;
70997;SDS011;58663;52.040;4.634;2022-12-07T06:26:20;3.40;;;0.90;;
70997;SDS011;58663;52.040;4.634;2022-12-07T06:28:45;1.77;;;0.60;;
70997;SDS011;58663;52.040;4.634;2022-12-07T06:31:11;2.10;;;0.80;;
70997;SDS011;58663;52.040;4.634;2022-12-07T06:33:36;6.18;;;0.85;;
70997;SDS011;58663;52.040;4.634;2022-12-07T06:36:02;6.50;;;0.73;;
70997;SDS011;58663;52.040;4.634;2022-12-07T06:38:27;2.97;;;0.85;;
70997;SDS011;58663;52.040;4.634;2022-12-07T06:40:53;2.03;;;1.00;;
70997;SDS011;58663;52.040;4.634;2022-12-07T06:43:18;5.65;;;1.95;;
70997;SDS011;58663;52.040;4.634;2022-12-07T06:45:43;5.10;;;1.48;;
70997;SDS011;58663;52.040;4.634;2022-12-07T06:48:09;19.73;;;2.28;;
70997;SDS011;58663;52.040;4.634;2022-12-07T06:50:34;11.82;;;2.20;;
70997;SDS011;58663;52.040;4.634;2022-12-07T06:52:59;9.73;;;1.50;;
70997;SDS011;58663;52.040;4.634;2022-12-07T06:55:25;10.88;;;1.30;;
70997;SDS011;58663;52.040;4.634;2022-12-07T06:57:50;9.40;;;1.40;;
70997;SDS011;58663;52.040;4.634;2022-12-07T07:00:16;7.85;;;1.95;;
70997;SDS011;58663;52.040;4.634;2022-12-07T07:02:41;10.30;;;0.98;;
70997;SDS011;58663;52.040;4.634;2022-12-07T07:05:07;7.05;;;1.27;;
70997;SDS011;58663;52.040;4.634;2022-12-07T07:07:32;6.03;;;0.95;;
70997;SDS011;58663;52.040;4.634;2022-12-07T07:09:58;5.43;;;1.25;;
70997;SDS011;58663;52.040;4.634;2022-12-07T07:12:23;5.55;;;0.93;;
70997;SDS011;58663;52.040;4.634;2022-12-07T07:14:49;9.10;;;1.23;;
70997;SDS011;58663;52.040;4.634;2022-12-07T07:17:14;7.47;;;1.20;;
70997;SDS011;58663;52.040;4.634;2022-12-07T07:19:39;5.43;;;1.15;;
70997;SDS011;58663;52.040;4.634;2022-12-07T07:22:05;3.45;;;1.00;;
70997;SDS011;58663;52.040;4.634;2022-12-07T07:24:30;5.13;;;1.08;;
70997;SDS011;58663;52.040;4.634;2022-12-07T07:26:56;3.30;;;1.42;;
70997;SDS011;58663;52.040;4.634;2022-12-07T07:29:21;3.50;;;1.38;;
70997;SDS011;58663;52.040;4.634;2022-12-07T07:31:46;5.57;;;1.17;;
70997;SDS011;58663;52.040;4.634;2022-12-07T07:34:12;5.38;;;1.45;;
70997;SDS011;58663;52.040;4.634;2022-12-07T07:36:37;4.28;;;1.30;;
70997;SDS011;58663;52.040;4.634;2022-12-07T07:39:03;4.93;;;1.98;;
70997;SDS011;58663;52.040;4.634;2022-12-07T07:41:28;5.70;;;2.00;;
70997;SDS011;58663;52.040;4.634;2022-12-07T07:43:53;7.20;;;2.17;;
70997;SDS011;58663;52.040;4.634;2022-12-07T07:46:19;5.50;;;1.60;;
70997;SDS011;58663;52.040;4.634;2022-12-07T07:48:44;6.45;;;1.80;;
70997;SDS011;58663;52.040;4.634;2022-12-07T07:51:10;3.95;;;2.15;;
70997;SDS011;58663;52.040;4.634;2022-12-07T07:53:35;8.98;;;2.10;;
70997;SDS011;58663;52.040;4.634;2022-12-07T07:56:00;6.32;;;1.70;;
70997;SDS011;58663;52.040;4.634;2022-12-07T07:58:26;3.65;;;1.40;;
70997;SDS011;58663;52.040;4.634;2022-12-07T08:00:52;4.38;;;1.48;;
70997;SDS011;58663;52.040;4.634;2022-12-07T08:03:18;5.13;;;1.52;;
70997;SDS011;58663;52.040;4.634;2022-12-07T08:05:43;4.20;;;1.92;;
70997;SDS011;58663;52.040;4.634;2022-12-07T08:08:09;4.80;;;2.03;;
70997;SDS011;58663;52.040;4.634;2022-12-07T08:10:34;6.72;;;2.08;;
70997;SDS011;58663;52.040;4.634;2022-12-07T08:13:00;6.32;;;1.88;;
70997;SDS011;58663;52.040;4.634;2022-12-07T08:15:44;11.73;;;2.47;;
70997;SDS011;58663;52.040;4.634;2022-12-07T08:18:10;12.88;;;2.05;;
70997;SDS011;58663;52.040;4.634;2022-12-07T08:20:37;7.50;;;1.63;;
70997;SDS011;58663;52.040;4.634;2022-12-07T08:23:03;6.70;;;1.92;;
70997;SDS011;58663;52.040;4.634;2022-12-07T08:25:29;5.50;;;2.00;;
70997;SDS011;58663;52.040;4.634;2022-12-07T08:27:54;4.93;;;1.63;;
70997;SDS011;58663;52.040;4.634;2022-12-07T08:30:20;5.55;;;2.00;;
70997;SDS011;58663;52.040;4.634;2022-12-07T08:32:46;8.10;;;2.25;;
70997;SDS011;58663;52.040;4.634;2022-12-07T08:35:12;9.63;;;2.65;;
70997;SDS011;58663;52.040;4.634;2022-12-07T08:37:38;8.65;;;2.75;;
70997;SDS011;58663;52.040;4.634;2022-12-07T08:40:04;13.43;;;2.90;;
70997;SDS011;58663;52.040;4.634;2022-12-07T08:42:30;11.95;;;2.00;;
70997;SDS011;58663;52.040;4.634;2022-12-07T08:45:03;12.80;;;2.42;;
70997;SDS011;58663;52.040;4.634;2022-12-07T08:47:33;13.27;;;2.13;;
70997;SDS011;58663;52.040;4.634;2022-12-07T08:49:59;8.10;;;2.00;;
70997;SDS011;58663;52.040;4.634;2022-12-07T08:52:29;19.73;;;1.70;;
70997;SDS011;58663;52.040;4.634;2022-12-07T08:54:58;2.92;;;1.30;;
70997;SDS011;58663;52.040;4.634;2022-12-07T08:57:24;3.05;;;1.15;;
70997;SDS011;58663;52.040;4.634;2022-12-07T08:59:50;6.82;;;1.48;;
70997;SDS011;58663;52.040;4.634;2022-12-07T09:02:15;12.40;;;1.33;;
70997;SDS011;58663;52.040;4.634;2022-12-07T09:04:41;8.40;;;1.38;;
70997;SDS011;58663;52.040;4.634;2022-12-07T09:07:06;9.38;;;1.10;;
70997;SDS011;58663;52.040;4.634;2022-12-07T09:09:32;3.92;;;1.70;;
70997;SDS011;58663;52.040;4.634;2022-12-07T09:11:57;7.32;;;1.40;;
70997;SDS011;58663;52.040;4.634;2022-12-07T09:14:23;6.25;;;1.30;;
70997;SDS011;58663;52.040;4.634;2022-12-07T09:16:48;4.93;;;1.08;;
70997;SDS011;58663;52.040;4.634;2022-12-07T09:19:14;5.82;;;1.25;;
70997;SDS011;58663;52.040;4.634;2022-12-07T09:21:39;6.07;;;1.58;;
70997;SDS011;58663;52.040;4.634;2022-12-07T09:24:05;8.07;;;2.22;;
70997;SDS011;58663;52.040;4.634;2022-12-07T09:26:31;4.50;;;0.90;;
70997;SDS011;58663;52.040;4.634;2022-12-07T09:28:56;7.13;;;1.42;;
70997;SDS011;58663;52.040;4.634;2022-12-07T09:31:21;4.72;;;1.10;;
70997;SDS011;58663;52.040;4.634;2022-12-07T09:33:47;8.85;;;2.13;;
70997;SDS011;58663;52.040;4.634;2022-12-07T09:36:18;3.28;;;1.00;;
70997;SDS011;58663;52.040;4.634;2022-12-07T09:38:43;6.25;;;0.80;;
70997;SDS011;58663;52.040;4.634;2022-12-07T09:41:09;3.38;;;0.90;;
70997;SDS011;58663;52.040;4.634;2022-12-07T09:43:35;2.70;;;0.95;;
70997;SDS011;58663;52.040;4.634;2022-12-07T09:46:01;10.95;;;0.93;;
70997;SDS011;58663;52.040;4.634;2022-12-07T09:48:36;6.63;;;0.75;;
70997;SDS011;58663;52.040;4.634;2022-12-07T09:51:11;4.38;;;1.40;;
70997;SDS011;58663;52.040;4.634;2022-12-07T09:53:47;7.00;;;0.73;;
70997;SDS011;58663;52.040;4.634;2022-12-07T09:56:14;4.03;;;0.85;;
70997;SDS011;58663;52.040;4.634;2022-12-07T09:58:41;3.97;;;1.27;;
70997;SDS011;58663;52.040;4.634;2022-12-07T10:03:37;12.98;;;1.70;;
70997;SDS011;58663;52.040;4.634;2022-12-07T10:06:04;6.55;;;1.90;;
70997;SDS011;58663;52.040;4.634;2022-12-07T10:08:30;3.28;;;2.03;;
70997;SDS011;58663;52.040;4.634;2022-12-07T10:10:56;3.15;;;1.88;;
70997;SDS011;58663;52.040;4.634;2022-12-07T10:13:33;10.35;;;2.30;;
70997;SDS011;58663;52.040;4.634;2022-12-07T10:16:06;13.88;;;2.80;;
70997;SDS011;58663;52.040;4.634;2022-12-07T10:18:43;7.57;;;2.85;;
70997;SDS011;58663;52.040;4.634;2022-12-07T10:24:13;10.25;;;3.00;;
70997;SDS011;58663;52.040;4.634;2022-12-07T10:31:41;7.55;;;2.65;;
70997;SDS011;58663;52.040;4.634;2022-12-07T10:34:15;12.70;;;2.53;;
70997;SDS011;58663;52.040;4.634;2022-12-07T10:36:49;4.35;;;2.08;;
70997;SDS011;58663;52.040;4.634;2022-12-07T10:39:15;17.20;;;3.17;;
70997;SDS011;58663;52.040;4.634;2022-12-07T10:41:56;8.07;;;2.58;;
70997;SDS011;58663;52.040;4.634;2022-12-07T10:44:25;9.32;;;1.65;;
70997;SDS011;58663;52.040;4.634;2022-12-07T11:00:45;10.25;;;2.38;;
70997;SDS011;58663;52.040;4.634;2022-12-07T11:11:09;14.20;;;3.10;;
70997;SDS011;58663;52.040;4.634;2022-12-07T11:13:52;7.68;;;2.38;;
70997;SDS011;58663;52.040;4.634;2022-12-07T11:22:01;5.72;;;1.15;;
70997;SDS011;58663;52.040;4.634;2022-12-07T11:24:35;7.47;;;1.60;;
70997;SDS011;58663;52.040;4.634;2022-12-07T11:38:22;7.93;;;1.00;;
70997;SDS011;58663;52.040;4.634;2022-12-07T11:40:51;8.25;;;1.35;;
70997;SDS011;58663;52.040;4.634;2022-12-07T11:43:31;2.03;;;0.88;;
70997;SDS011;58663;52.040;4.634;2022-12-07T11:46:04;1.95;;;0.50;;
70997;SDS011;58663;52.040;4.634;2022-12-07T11:48:35;2.92;;;0.73;;
70997;SDS011;58663;52.040;4.634;2022-12-07T11:51:03;3.65;;;0.73;;
70997;SDS011;58663;52.040;4.634;2022-12-07T11:56:19;13.98;;;1.30;;
70997;SDS011;58663;52.040;4.634;2022-12-07T12:04:27;4.97;;;1.13;;
70997;SDS011;58663;52.040;4.634;2022-12-07T12:07:05;3.40;;;0.77;;
70997;SDS011;58663;52.040;4.634;2022-12-07T12:09:32;3.88;;;0.65;;
70997;SDS011;58663;52.040;4.634;2022-12-07T12:20:00;4.82;;;1.10;;
70997;SDS011;58663;52.040;4.634;2022-12-07T12:22:50;5.22;;;0.70;;
70997;SDS011;58663;52.040;4.634;2022-12-07T12:25:24;4.28;;;1.05;;
70997;SDS011;58663;52.040;4.634;2022-12-07T12:27:55;3.08;;;0.65;;
70997;SDS011;58663;52.040;4.634;2022-12-07T12:32:50;6.97;;;0.80;;
70997;SDS011;58663;52.040;4.634;2022-12-07T12:35:20;2.40;;;0.73;;
70997;SDS011;58663;52.040;4.634;2022-12-07T12:38:21;1.63;;;0.82;;
70997;SDS011;58663;52.040;4.634;2022-12-07T12:41:50;3.75;;;0.80;;
70997;SDS011;58663;52.040;4.634;2022-12-07T12:47:02;1.77;;;0.80;;
70997;SDS011;58663;52.040;4.634;2022-12-07T12:52:48;3.22;;;0.60;;
70997;SDS011;58663;52.040;4.634;2022-12-07T12:55:18;3.08;;;1.25;;
70997;SDS011;58663;52.040;4.634;2022-12-07T12:57:47;2.88;;;0.88;;
70997;SDS011;58663;52.040;4.634;2022-12-07T13:00:20;2.47;;;0.90;;
70997;SDS011;58663;52.040;4.634;2022-12-07T13:10:25;4.30;;;1.13;;
70997;SDS011;58663;52.040;4.634;2022-12-07T13:13:05;5.88;;;0.90;;
70997;SDS011;58663;52.040;4.634;2022-12-07T13:15:56;1.20;;;0.77;;
70997;SDS011;58663;52.040;4.634;2022-12-07T13:18:40;2.53;;;0.98;;
70997;SDS011;58663;52.040;4.634;2022-12-07T13:28:38;2.25;;;0.93;;
70997;SDS011;58663;52.040;4.634;2022-12-07T13:33:52;4.80;;;1.10;;
70997;SDS011;58663;52.040;4.634;2022-12-07T13:38:48;2.33;;;0.60;;
70997;SDS011;58663;52.040;4.634;2022-12-07T13:41:16;1.10;;;0.70;;
70997;SDS011;58663;52.040;4.634;2022-12-07T13:43:48;2.47;;;0.70;;
70997;SDS011;58663;52.040;4.634;2022-12-07T13:46:21;1.98;;;0.82;;
70997;SDS011;58663;52.040;4.634;2022-12-07T13:48:50;4.53;;;0.65;;
70997;SDS011;58663;52.040;4.634;2022-12-07T13:51:24;4.03;;;0.77;;
70997;SDS011;58663;52.040;4.634;2022-12-07T13:53:52;2.08;;;0.80;;
70997;SDS011;58663;52.040;4.634;2022-12-07T13:56:20;4.28;;;0.75;;
70997;SDS011;58663;52.040;4.634;2022-12-07T13:58:47;5.93;;;1.85;;
70997;SDS011;58663;52.040;4.634;2022-12-07T14:01:12;2.88;;;0.70;;
70997;SDS011;58663;52.040;4.634;2022-12-07T14:03:38;6.10;;;0.80;;
70997;SDS011;58663;52.040;4.634;2022-12-07T14:08:39;3.65;;;0.90;;
70997;SDS011;58663;52.040;4.634;2022-12-07T14:11:04;2.55;;;0.75;;
70997;SDS011;58663;52.040;4.634;2022-12-07T14:16:28;3.30;;;0.75;;
70997;SDS011;58663;52.040;4.634;2022-12-07T14:18:56;3.30;;;0.87;;
70997;SDS011;58663;52.040;4.634;2022-12-07T14:21:27;2.33;;;0.65;;
70997;SDS011;58663;52.040;4.634;2022-12-07T14:32:26;2.50;;;0.63;;
70997;SDS011;58663;52.040;4.634;2022-12-07T14:37:22;4.10;;;0.88;;
70997;SDS011;58663;52.040;4.634;2022-12-07T14:39:48;2.65;;;0.80;;
70997;SDS011;58663;52.040;4.634;2022-12-07T14:42:14;4.10;;;0.70;;
70997;SDS011;58663;52.040;4.634;2022-12-07T14:44:39;3.55;;;0.52;;
70997;SDS011;58663;52.040;4.634;2022-12-07T14:47:04;2.40;;;0.57;;
70997;SDS011;58663;52.040;4.634;2022-12-07T14:49:30;2.55;;;0.77;;
70997;SDS011;58663;52.040;4.634;2022-12-07T14:51:55;1.98;;;0.70;;
70997;SDS011;58663;52.040;4.634;2022-12-07T14:54:21;1.75;;;0.50;;
70997;SDS011;58663;52.040;4.634;2022-12-07T14:56:49;2.40;;;0.80;;
70997;SDS011;58663;52.040;4.634;2022-12-07T14:59:16;1.05;;;0.60;;
70997;SDS011;58663;52.040;4.634;2022-12-07T15:01:42;3.33;;;0.90;;
70997;SDS011;58663;52.040;4.634;2022-12-07T15:04:07;7.97;;;1.27;;
70997;SDS011;58663;52.040;4.634;2022-12-07T15:06:33;3.25;;;0.90;;
70997;SDS011;58663;52.040;4.634;2022-12-07T15:08:58;6.07;;;1.05;;
70997;SDS011;58663;52.040;4.634;2022-12-07T15:11:24;4.32;;;1.00;;
70997;SDS011;58663;52.040;4.634;2022-12-07T15:13:49;6.00;;;0.95;;
70997;SDS011;58663;52.040;4.634;2022-12-07T15:16:33;2.75;;;1.10;;
70997;SDS011;58663;52.040;4.634;2022-12-07T15:18:59;4.97;;;1.60;;
70997;SDS011;58663;52.040;4.634;2022-12-07T15:21:25;8.00;;;1.27;;
70997;SDS011;58663;52.040;4.634;2022-12-07T15:23:50;2.50;;;0.73;;
70997;SDS011;58663;52.040;4.634;2022-12-07T15:26:16;4.72;;;1.00;;
70997;SDS011;58663;52.040;4.634;2022-12-07T15:28:42;3.50;;;1.20;;
70997;SDS011;58663;52.040;4.634;2022-12-07T15:31:11;6.53;;;1.27;;
70997;SDS011;58663;52.040;4.634;2022-12-07T15:33:38;3.53;;;1.45;;
70997;SDS011;58663;52.040;4.634;2022-12-07T15:36:04;3.70;;;1.27;;
70997;SDS011;58663;52.040;4.634;2022-12-07T15:38:29;6.15;;;1.33;;
70997;SDS011;58663;52.040;4.634;2022-12-07T15:40:55;8.50;;;1.73;;
70997;SDS011;58663;52.040;4.634;2022-12-07T15:43:21;4.70;;;1.20;;
70997;SDS011;58663;52.040;4.634;2022-12-07T15:46:05;7.88;;;1.88;;
70997;SDS011;58663;52.040;4.634;2022-12-07T15:48:30;6.30;;;1.77;;
70997;SDS011;58663;52.040;4.634;2022-12-07T15:51:06;6.72;;;1.67;;
70997;SDS011;58663;52.040;4.634;2022-12-07T15:53:32;7.05;;;2.30;;
70997;SDS011;58663;52.040;4.634;2022-12-07T15:55:58;7.95;;;1.55;;
70997;SDS011;58663;52.040;4.634;2022-12-07T15:58:23;10.55;;;2.53;;
70997;SDS011;58663;52.040;4.634;2022-12-07T16:00:49;4.88;;;1.95;;
70997;SDS011;58663;52.040;4.634;2022-12-07T16:03:14;5.88;;;1.98;;
70997;SDS011;58663;52.040;4.634;2022-12-07T16:05:40;7.13;;;1.67;;
70997;SDS011;58663;52.040;4.634;2022-12-07T16:08:05;5.93;;;2.40;;
70997;SDS011;58663;52.040;4.634;2022-12-07T16:10:30;3.78;;;1.45;;
70997;SDS011;58663;52.040;4.634;2022-12-07T16:12:56;7.35;;;1.60;;
70997;SDS011;58663;52.040;4.634;2022-12-07T16:15:21;5.43;;;1.15;;
70997;SDS011;58663;52.040;4.634;2022-12-07T16:17:49;9.15;;;1.58;;
70997;SDS011;58663;52.040;4.634;2022-12-07T16:20:15;4.85;;;1.33;;
70997;SDS011;58663;52.040;4.634;2022-12-07T16:22:40;2.75;;;1.13;;
70997;SDS011;58663;52.040;4.634;2022-12-07T16:25:05;5.03;;;1.00;;
70997;SDS011;58663;52.040;4.634;2022-12-07T16:27:31;6.82;;;1.85;;
70997;SDS011;58663;52.040;4.634;2022-12-07T16:29:56;6.53;;;0.90;;
70997;SDS011;58663;52.040;4.634;2022-12-07T16:32:22;2.55;;;0.90;;
70997;SDS011;58663;52.040;4.634;2022-12-07T16:34:47;3.75;;;1.15;;
70997;SDS011;58663;52.040;4.634;2022-12-07T16:37:13;11.65;;;1.25;;
70997;SDS011;58663;52.040;4.634;2022-12-07T16:39:38;4.13;;;1.05;;
70997;SDS011;58663;52.040;4.634;2022-12-07T16:42:03;3.50;;;1.13;;
70997;SDS011;58663;52.040;4.634;2022-12-07T16:44:29;1.52;;;0.80;;
70997;SDS011;58663;52.040;4.634;2022-12-07T16:46:56;3.95;;;1.58;;
70997;SDS011;58663;52.040;4.634;2022-12-07T16:49:21;5.93;;;1.05;;
70997;SDS011;58663;52.040;4.634;2022-12-07T16:51:49;5.40;;;1.38;;
70997;SDS011;58663;52.040;4.634;2022-12-07T16:54:15;3.85;;;1.05;;
70997;SDS011;58663;52.040;4.634;2022-12-07T16:56:40;2.30;;;1.63;;
70997;SDS011;58663;52.040;4.634;2022-12-07T16:59:06;7.93;;;1.40;;
70997;SDS011;58663;52.040;4.634;2022-12-07T17:01:32;4.75;;;1.27;;
70997;SDS011;58663;52.040;4.634;2022-12-07T17:03:59;3.22;;;1.42;;
70997;SDS011;58663;52.040;4.634;2022-12-07T17:06:25;5.28;;;1.92;;
70997;SDS011;58663;52.040;4.634;2022-12-07T17:08:52;9.20;;;2.08;;
70997;SDS011;58663;52.040;4.634;2022-12-07T17:11:19;6.35;;;2.05;;
70997;SDS011;58663;52.040;4.634;2022-12-07T17:13:46;4.72;;;2.03;;
70997;SDS011;58663;52.040;4.634;2022-12-07T17:16:31;7.97;;;1.50;;
70997;SDS011;58663;52.040;4.634;2022-12-07T17:18:56;4.97;;;1.65;;
70997;SDS011;58663;52.040;4.634;2022-12-07T17:21:22;4.72;;;1.20;;